Time;durP1;ratioP1;P1;durP2;ratioP2;P2;SDS_P1;SDS_P2;PMS_P1;PMS_P2;Temp;Humidity;BMP_temperature;BMP_pressure;BME280_temperature;BME280_humidity;BME280_pressure;Samples;Min_cycle;Max_cycle;Signal;HPM_P1;HPM_P2
2023/06/07 00:00:02;;;;;;;;;;;21.20;91.50;21.50;99338.00;;;;343564;28;82590;-88
2023/06/07 00:00:15;;;;;;;;;;;21.20;91.40;21.60;99343.00;;;;338806;28;95498;-87
2023/06/07 00:00:26;;;;;;;;;;;21.20;91.40;21.60;99337.00;;;;342216;28;83451;-88
2023/06/07 00:00:38;;;;;;;;;;;21.30;91.40;21.40;99342.00;;;;343175;28;96490;-87
2023/06/07 00:00:50;;;;;;;;;;;21.30;91.80;21.50;99341.00;;;;341321;28;83381;-88
2023/06/07 00:01:08;;;;;;;;;;;21.30;91.60;21.30;99340.00;;;;342929;28;95944;-87
2023/06/07 00:01:20;;;;;;;;;;;21.30;91.60;21.20;99342.00;;;;345060;28;82531;-88
2023/06/07 00:01:33;;;;;;;;;;;21.20;91.90;21.20;99342.00;;;;341634;28;96825;-88
2023/06/07 00:01:45;;;;;;;;;;;21.20;91.80;21.20;99338.00;;;;343767;28;83524;-87
2023/06/07 00:01:57;;;;;;;;;;;21.20;91.90;21.20;99340.00;;;;338818;28;94711;-87
2023/06/07 00:02:11;;;;;;;;;;;21.20;91.90;21.30;99336.00;;;;342419;28;82363;-87
2023/06/07 00:02:22;;;;;;;;;;;21.20;91.70;21.40;99341.00;;;;342924;28;95829;-88
2023/06/07 00:02:53;;;;;;;;;;;21.20;91.60;21.20;99343.00;;;;341321;28;82518;-88
2023/06/07 00:03:09;;;;;;;;;;;21.20;91.80;21.20;99348.00;;;;341932;28;94545;-88
2023/06/07 00:03:21;;;;;;;;;;;21.20;92.00;21.20;99341.00;;;;347290;28;82344;-87
2023/06/07 00:03:34;;;;;;;;;;;21.20;92.00;21.30;99346.00;;;;343959;28;95645;-87
2023/06/07 00:03:47;;;;;;;;;;;21.20;91.80;21.30;99335.00;;;;343441;28;82423;-87
2023/06/07 00:03:59;;;;;;;;;;;21.20;91.90;21.40;99334.00;;;;343693;28;94607;-88
2023/06/07 00:04:11;;;;;;;;;;;21.20;91.80;21.40;99338.00;;;;344463;28;82594;-88
2023/06/07 00:04:23;;;;;;;;;;;21.20;91.80;21.40;99330.00;;;;340893;28;97224;-87
2023/06/07 00:04:35;;;;;;;;;;;21.20;91.70;21.40;99336.00;;;;339558;28;82505;-88
2023/06/07 00:04:48;;;;;;;;;;;21.20;91.70;21.30;99333.00;;;;338494;28;96827;-88
2023/06/07 00:05:00;;;;;;;;;;;21.20;91.80;21.20;99334.00;;;;340469;28;83443;-88
2023/06/07 00:05:14;;;;;;;;;;;21.20;92.00;21.20;99337.00;;;;338513;28;95645;-88
2023/06/07 00:05:26;;;;;;;;;;;21.20;92.00;21.10;99342.00;;;;340678;28;83393;-88
2023/06/07 00:05:38;;;;;;;;;;;21.20;92.10;21.10;99338.00;;;;339824;28;97050;-88
2023/06/07 00:05:51;;;;;;;;;;;21.10;92.10;21.10;99334.00;;;;340703;28;83439;-88
2023/06/07 00:06:03;;;;;;;;;;;21.10;92.00;21.20;99335.00;;;;338679;28;93835;-88
2023/06/07 00:06:16;;;;;;;;;;;21.10;91.90;21.10;99344.00;;;;340816;28;83299;-88
2023/06/07 00:06:28;;;;;;;;;;;21.10;92.00;21.20;99339.00;;;;341067;28;97273;-88
2023/06/07 00:06:40;;;;;;;;;;;21.10;92.00;21.20;99338.00;;;;340734;28;83214;-87
2023/06/07 00:06:56;;;;;;;;;;;21.10;92.30;21.20;99338.00;;;;342741;28;93948;-88
2023/06/07 00:07:11;;;;;;;;;;;21.10;92.40;21.00;99339.00;;;;341993;28;83403;-88
2023/06/07 00:07:23;;;;;;;;;;;21.10;92.50;21.00;99340.00;;;;341045;28;96890;-88
2023/06/07 00:07:35;;;;;;;;;;;21.10;92.40;21.00;99336.00;;;;342022;28;83236;-88
2023/06/07 00:07:47;;;;;;;;;;;21.10;92.40;21.10;99341.00;;;;337163;28;96932;-88
2023/06/07 00:07:59;;;;;;;;;;;21.10;92.10;21.10;99338.00;;;;341996;28;83419;-88
2023/06/07 00:08:11;;;;;;;;;;;21.00;92.20;21.10;99334.00;;;;339854;28;95295;-88
2023/06/07 00:08:23;;;;;;;;;;;21.00;92.10;21.10;99344.00;;;;340695;28;83436;-88
2023/06/07 00:08:35;;;;;;;;;;;21.10;92.10;21.10;99346.00;;;;341161;28;96533;-88
2023/06/07 00:08:47;;;;;;;;;;;21.10;92.00;21.10;99340.00;;;;340776;28;82471;-88
2023/06/07 00:08:59;;;;;;;;;;;21.10;92.00;21.10;99344.00;;;;341362;28;93779;-87
2023/06/07 00:09:11;;;;;;;;;;;21.10;92.00;21.20;99346.00;;;;339200;28;83480;-88
2023/06/07 00:09:23;;;;;;;;;;;21.10;91.80;21.30;99332.00;;;;342615;28;96726;-88
2023/06/07 00:09:35;;;;;;;;;;;21.10;92.00;21.20;99337.00;;;;341964;28;82542;-88
2023/06/07 00:09:46;;;;;;;;;;;21.10;92.10;21.20;99346.00;;;;338529;28;96560;-88
2023/06/07 00:09:58;;;;;;;;;;;21.10;92.30;21.20;99331.00;;;;340721;28;82465;-88
2023/06/07 00:10:11;;;;;;;;;;;21.10;92.10;21.10;99343.00;;;;341326;28;92844;-88
2023/06/07 00:10:23;;;;;;;;;;;21.10;92.10;21.10;99338.00;;;;338119;28;83386;-88
2023/06/07 00:10:36;;;;;;;;;;;21.10;92.20;21.10;99354.00;;;;341132;28;97926;-88
2023/06/07 00:10:48;;;;;;;;;;;21.10;92.40;21.10;99344.00;;;;342153;28;83270;-87
2023/06/07 00:11:00;;;;;;;;;;;21.10;92.40;21.20;99341.00;;;;339932;28;95926;-88
2023/06/07 00:11:12;;;;;;;;;;;21.10;92.10;21.20;99348.00;;;;341974;28;84261;-88
2023/06/07 00:11:24;;;;;;;;;;;21.10;92.00;21.30;99344.00;;;;341107;28;94223;-88
2023/06/07 00:11:36;;;;;;;;;;;21.10;92.00;21.30;99339.00;;;;343309;28;83360;-88
2023/06/07 00:11:48;;;;;;;;;;;21.10;92.10;21.40;99342.00;;;;339844;28;95463;-87
2023/06/07 00:12:00;;;;;;;;;;;21.10;92.20;21.40;99342.00;;;;342019;28;83442;-88
2023/06/07 00:12:11;;;;;;;;;;;21.10;92.10;21.40;99339.00;;;;339979;28;96350;-88
2023/06/07 00:12:23;;;;;;;;;;;21.10;92.10;21.30;99338.00;;;;342091;28;83366;-88
2023/06/07 00:12:36;;;;;;;;;;;21.10;92.10;21.30;99337.00;;;;341092;28;98013;-88
2023/06/07 00:12:47;;;;;;;;;;;21.10;92.30;21.30;99344.00;;;;340736;28;82702;-88
2023/06/07 00:13:00;;;;;;;;;;;21.10;92.40;21.40;99341.00;;;;339950;28;97400;-88
2023/06/07 00:13:12;;;;;;;;;;;21.10;92.20;21.40;99339.00;;;;341935;28;83315;-88
2023/06/07 00:13:24;;;;;;;;;;;21.10;92.20;21.40;99337.00;;;;341133;28;97295;-88
2023/06/07 00:13:37;;;;;;;;;;;21.10;92.40;21.40;99344.00;;;;340560;28;83495;-87
2023/06/07 00:13:49;;;;;;;;;;;21.10;92.30;21.20;99341.00;;;;339784;28;98019;-88
2023/06/07 00:14:01;;;;;;;;;;;21.10;92.30;21.20;99341.00;;;;343394;28;84565;-87
2023/06/07 00:14:13;;;;;;;;;;;21.10;92.40;21.20;99347.00;;;;341232;28;96095;-87
2023/06/07 00:14:25;;;;;;;;;;;21.10;92.50;21.20;99345.00;;;;342091;28;83460;-87
2023/06/07 00:14:37;;;;;;;;;;;21.10;92.70;21.20;99345.00;;;;341087;28;97716;-87
2023/06/07 00:14:49;;;;;;;;;;;21.10;92.60;21.20;99347.00;;;;342040;28;83358;-88
2023/06/07 00:15:00;;;;;;;;;;;21.10;92.50;21.20;99349.00;;;;342677;28;92861;-88
2023/06/07 00:15:12;;;;;;;;;;;21.10;92.70;21.20;99342.00;;;;337863;28;83567;-87
2023/06/07 00:15:24;;;;;;;;;;;21.10;92.50;21.20;99348.00;;;;341266;28;96030;-87
2023/06/07 00:15:36;;;;;;;;;;;21.10;92.40;21.10;99341.00;;;;342132;28;82422;-88
2023/06/07 00:15:48;;;;;;;;;;;21.10;92.60;21.10;99347.00;;;;338706;28;94244;-88
2023/06/07 00:16:00;;;;;;;;;;;21.10;92.70;21.30;99339.00;;;;341953;28;83553;-88
2023/06/07 00:16:12;;;;;;;;;;;21.10;92.50;21.30;99340.00;;;;333180;29;96208;-88
2023/06/07 00:16:24;;;;;;;;;;;21.10;92.60;21.20;99346.00;;;;339342;28;82699;-88
2023/06/07 00:16:36;;;;;;;;;;;21.10;92.80;21.20;99343.00;;;;342461;28;97632;-87
2023/06/07 00:16:50;;;;;;;;;;;21.10;92.80;21.10;99344.00;;;;340759;28;82502;-88
2023/06/07 00:17:02;;;;;;;;;;;21.10;92.60;21.20;99344.00;;;;335772;28;97280;-87
2023/06/07 00:17:15;;;;;;;;;;;21.10;92.50;21.10;99339.00;;;;336413;28;82574;-88
2023/06/07 00:17:27;;;;;;;;;;;21.10;92.50;21.00;99337.00;;;;333204;29;97038;-88
2023/06/07 00:17:40;;;;;;;;;;;21.10;92.90;21.00;99336.00;;;;336587;28;82922;-87
2023/06/07 00:17:53;;;;;;;;;;;21.00;92.90;21.10;99343.00;;;;339733;28;96082;-88
2023/06/07 00:18:05;;;;;;;;;;;21.10;92.70;21.20;99337.00;;;;337921;28;83474;-89
2023/06/07 00:18:19;;;;;;;;;;;21.10;92.70;21.10;99343.00;;;;341051;28;97145;-88
2023/06/07 00:18:31;;;;;;;;;;;21.00;92.60;21.10;99338.00;;;;342036;28;83436;-88
2023/06/07 00:18:43;;;;;;;;;;;21.10;92.80;21.10;99340.00;;;;339829;28;97583;-88
2023/06/07 00:18:55;;;;;;;;;;;21.00;92.70;21.10;99342.00;;;;340828;28;83404;-88
2023/06/07 00:19:08;;;;;;;;;;;21.10;92.70;21.10;99348.00;;;;337332;28;97016;-88
2023/06/07 00:19:21;;;;;;;;;;;21.00;92.80;21.00;99340.00;;;;338124;28;83998;-88
2023/06/07 00:19:33;;;;;;;;;;;21.10;92.90;21.00;99337.00;;;;337364;28;96241;-88
2023/06/07 00:19:45;;;;;;;;;;;21.00;92.90;21.10;99335.00;;;;340748;28;83357;-88
2023/06/07 00:19:56;;;;;;;;;;;21.00;92.90;21.10;99337.00;;;;338477;28;97921;-88
2023/06/07 00:20:08;;;;;;;;;;;21.00;92.80;21.10;99336.00;;;;339287;28;83474;-88
2023/06/07 00:20:20;;;;;;;;;;;21.00;92.60;21.00;99333.00;;;;339954;28;96317;-88
2023/06/07 00:20:32;;;;;;;;;;;21.00;92.70;21.10;99338.00;;;;339490;28;82420;-88
2023/06/07 00:20:45;;;;;;;;;;;21.00;92.70;21.10;99340.00;;;;341301;28;96675;-88
2023/06/07 00:20:58;;;;;;;;;;;21.00;92.70;21.20;99331.00;;;;340740;28;82457;-88
2023/06/07 00:21:10;;;;;;;;;;;21.00;92.70;21.20;99343.00;;;;338554;28;93859;-88
2023/06/07 00:21:22;;;;;;;;;;;21.00;93.00;21.10;99342.00;;;;343346;28;83434;-87
2023/06/07 00:21:36;;;;;;;;;;;21.00;92.90;21.00;99343.00;;;;340042;28;93158;-88
2023/06/07 00:21:51;;;;;;;;;;;21.00;92.90;21.00;99334.00;;;;340750;28;83251;-88
2023/06/07 00:22:03;;;;;;;;;;;21.00;93.00;21.10;99334.00;;;;342542;28;96213;-88
2023/06/07 00:22:15;;;;;;;;;;;21.00;92.90;21.00;99330.00;;;;343483;28;83361;-87
2023/06/07 00:22:29;;;;;;;;;;;21.00;92.80;21.20;99332.00;;;;342498;28;96637;-88
2023/06/07 00:22:40;;;;;;;;;;;21.00;92.60;21.20;99340.00;;;;343314;28;83401;-88
2023/06/07 00:22:55;;;;;;;;;;;21.00;92.80;21.20;99333.00;;;;340000;28;94373;-87
2023/06/07 00:23:08;;;;;;;;;;;21.00;92.90;21.10;99337.00;;;;342089;28;83343;-87
2023/06/07 00:23:20;;;;;;;;;;;21.00;93.10;21.20;99330.00;;;;343961;28;93868;-88
2023/06/07 00:23:32;;;;;;;;;;;21.00;93.00;21.30;99342.00;;;;342064;28;82429;-88
2023/06/07 00:23:44;;;;;;;;;;;21.00;92.80;21.10;99334.00;;;;341204;28;95435;-87
2023/06/07 00:23:56;;;;;;;;;;;21.00;93.10;21.10;99341.00;;;;341837;28;82582;-88
2023/06/07 00:24:08;;;;;;;;;;;21.00;93.10;21.00;99338.00;;;;339934;28;96732;-87
2023/06/07 00:24:20;;;;;;;;;;;21.00;93.10;21.00;99336.00;;;;340618;28;83184;-88
2023/06/07 00:24:32;;;;;;;;;;;21.00;93.10;21.00;99345.00;;;;342330;28;96728;-87
2023/06/07 00:24:44;;;;;;;;;;;21.00;93.00;21.10;99343.00;;;;341991;28;82480;-88
2023/06/07 00:24:56;;;;;;;;;;;21.00;93.00;21.20;99339.00;;;;341315;28;95159;-88
2023/06/07 00:25:08;;;;;;;;;;;21.00;92.90;21.20;99338.00;;;;343234;28;83498;-88
2023/06/07 00:25:20;;;;;;;;;;;21.00;92.80;21.00;99337.00;;;;338591;28;96640;-88
2023/06/07 00:25:32;;;;;;;;;;;21.00;92.90;21.00;99339.00;;;;340809;28;83262;-87
2023/06/07 00:25:44;;;;;;;;;;;21.00;93.30;21.00;99340.00;;;;342621;28;93223;-88
2023/06/07 00:25:59;;;;;;;;;;;21.00;93.60;21.00;99340.00;;;;340608;28;83521;-87
2023/06/07 00:26:10;;;;;;;;;;;20.90;93.50;21.10;99336.00;;;;334448;29;96853;-87
2023/06/07 00:26:22;;;;;;;;;;;20.90;93.50;21.10;99334.00;;;;340587;28;83415;-87
2023/06/07 00:26:34;;;;;;;;;;;20.90;93.30;21.00;99340.00;;;;334482;28;93863;-88
2023/06/07 00:26:46;;;;;;;;;;;20.90;93.30;21.10;99340.00;;;;341736;28;83548;-88
2023/06/07 00:26:58;;;;;;;;;;;20.90;93.20;21.10;99336.00;;;;341155;28;97755;-88
2023/06/07 00:27:10;;;;;;;;;;;20.90;93.00;21.00;99334.00;;;;343415;28;82464;-88
2023/06/07 00:27:22;;;;;;;;;;;20.90;93.30;21.00;99333.00;;;;339873;28;96485;-88
2023/06/07 00:27:34;;;;;;;;;;;20.90;93.50;21.00;99341.00;;;;342101;28;83361;-88
2023/06/07 00:27:46;;;;;;;;;;;20.90;93.50;21.00;99337.00;;;;341148;28;95923;-88
2023/06/07 00:27:58;;;;;;;;;;;20.90;93.30;20.90;99342.00;;;;340720;28;82558;-87
2023/06/07 00:28:09;;;;;;;;;;;20.90;93.30;20.90;99343.00;;;;343947;28;94283;-88
2023/06/07 00:28:21;;;;;;;;;;;20.90;93.30;21.00;99337.00;;;;343404;28;82489;-88
2023/06/07 00:28:33;;;;;;;;;;;20.90;93.30;21.10;99337.00;;;;338607;28;95263;-87
2023/06/07 00:28:45;;;;;;;;;;;20.90;93.10;21.10;99337.00;;;;340518;28;83476;-87
2023/06/07 00:28:56;;;;;;;;;;;20.90;93.00;21.00;99341.00;;;;341258;28;97168;-87
2023/06/07 00:29:09;;;;;;;;;;;20.90;93.00;20.80;99336.00;;;;340698;28;83411;-88
2023/06/07 00:29:21;;;;;;;;;;;20.90;93.50;20.70;99347.00;;;;339879;28;93098;-88
2023/06/07 00:29:33;;;;;;;;;;;20.90;93.70;20.70;99339.00;;;;339432;28;83338;-88
2023/06/07 00:29:44;;;;;;;;;;;20.90;93.80;20.70;99336.00;;;;341301;28;94068;-87
2023/06/07 00:29:56;;;;;;;;;;;20.80;93.70;20.70;99333.00;;;;343296;28;83530;-87
2023/06/07 00:30:08;;;;;;;;;;;20.80;93.60;20.70;99342.00;;;;337171;28;96619;-88
2023/06/07 00:30:20;;;;;;;;;;;20.80;93.70;20.80;99338.00;;;;340642;28;83450;-88
2023/06/07 00:30:32;;;;;;;;;;;20.80;93.70;20.80;99341.00;;;;342519;28;96606;-87
2023/06/07 00:30:44;;;;;;;;;;;20.80;93.60;20.80;99344.00;;;;332580;29;83341;-87
2023/06/07 00:30:56;;;;;;;;;;;20.80;93.80;20.80;99340.00;;;;334368;29;97839;-87
2023/06/07 00:31:08;;;;;;;;;;;20.80;93.80;20.90;99336.00;;;;341869;28;83375;-88
2023/06/07 00:31:20;;;;;;;;;;;20.80;93.50;20.90;99335.00;;;;341044;28;96601;-88
2023/06/07 00:31:32;;;;;;;;;;;20.80;93.70;20.90;99343.00;;;;341944;28;82547;-88
2023/06/07 00:31:44;;;;;;;;;;;20.80;93.80;20.80;99340.00;;;;339995;28;93957;-88
2023/06/07 00:31:56;;;;;;;;;;;20.80;93.90;20.80;99339.00;;;;343371;28;82527;-88
2023/06/07 00:32:08;;;;;;;;;;;20.80;93.80;20.90;99334.00;;;;342685;28;94715;-87
2023/06/07 00:32:19;;;;;;;;;;;20.80;93.70;20.90;99334.00;;;;338046;28;83054;-88
2023/06/07 00:32:31;;;;;;;;;;;20.80;93.60;20.80;99337.00;;;;340915;28;95709;-87
2023/06/07 00:32:44;;;;;;;;;;;20.80;93.80;20.80;99335.00;;;;343183;28;83497;-87
2023/06/07 00:32:56;;;;;;;;;;;20.80;93.90;20.70;99339.00;;;;341148;28;98021;-87
2023/06/07 00:33:08;;;;;;;;;;;20.80;94.10;20.80;99332.00;;;;341969;28;83389;-88
2023/06/07 00:33:20;;;;;;;;;;;20.80;94.00;20.70;99342.00;;;;338420;28;96940;-88
2023/06/07 00:33:32;;;;;;;;;;;20.80;94.20;20.70;99343.00;;;;340672;28;83502;-88
2023/06/07 00:33:44;;;;;;;;;;;20.80;94.00;20.70;99343.00;;;;339893;28;95289;-88
2023/06/07 00:33:56;;;;;;;;;;;20.70;94.10;20.70;99342.00;;;;339357;28;83590;-88
2023/06/07 00:34:08;;;;;;;;;;;20.80;94.00;20.70;99338.00;;;;341251;28;96353;-88
2023/06/07 00:34:20;;;;;;;;;;;20.70;94.10;20.70;99341.00;;;;342084;28;83215;-88
2023/06/07 00:34:32;;;;;;;;;;;20.70;94.00;20.80;99337.00;;;;339872;28;96547;-88
2023/06/07 00:34:44;;;;;;;;;;;20.80;93.80;20.80;99341.00;;;;339386;28;83553;-87
2023/06/07 00:34:55;;;;;;;;;;;20.80;93.60;20.80;99340.00;;;;341238;28;97730;-88
2023/06/07 00:35:08;;;;;;;;;;;20.80;93.50;20.80;99341.00;;;;342017;28;83343;-88
2023/06/07 00:35:20;;;;;;;;;;;20.80;93.70;20.80;99340.00;;;;337302;28;94662;-88
2023/06/07 00:35:32;;;;;;;;;;;20.80;94.00;20.70;99344.00;;;;341996;28;83422;-88
2023/06/07 00:35:43;;;;;;;;;;;20.80;94.10;20.80;99338.00;;;;341282;28;94386;-88
2023/06/07 00:35:55;;;;;;;;;;;20.80;94.10;20.70;99345.00;;;;340630;28;82609;-88
2023/06/07 00:36:07;;;;;;;;;;;20.80;93.90;20.70;99337.00;;;;342713;28;96463;-88
2023/06/07 00:36:19;;;;;;;;;;;20.70;93.80;20.70;99343.00;;;;343380;28;83369;-88
2023/06/07 00:36:33;;;;;;;;;;;20.80;94.10;20.70;99348.00;;;;338486;28;95925;-88
2023/06/07 00:36:44;;;;;;;;;;;20.70;94.30;20.70;99337.00;;;;340617;28;83480;-88
2023/06/07 00:36:56;;;;;;;;;;;20.70;94.50;20.70;99343.00;;;;341344;28;97121;-88
2023/06/07 00:37:08;;;;;;;;;;;20.70;94.50;20.80;99341.00;;;;340756;28;82490;-88
2023/06/07 00:37:20;;;;;;;;;;;20.70;94.40;20.80;99338.00;;;;343885;28;97110;-87
2023/06/07 00:37:32;;;;;;;;;;;20.70;94.20;20.80;99337.00;;;;342015;28;82394;-87
2023/06/07 00:37:43;;;;;;;;;;;20.70;94.00;20.90;99339.00;;;;339851;28;95801;-88
2023/06/07 00:37:55;;;;;;;;;;;20.70;93.80;20.90;99340.00;;;;340565;28;83493;-88
2023/06/07 00:38:07;;;;;;;;;;;20.70;93.80;20.90;99340.00;;;;338549;28;94250;-87
2023/06/07 00:38:19;;;;;;;;;;;20.70;94.20;20.80;99337.00;;;;341935;28;83595;-88
2023/06/07 00:38:31;;;;;;;;;;;20.70;94.40;20.80;99335.00;;;;341202;28;96686;-87
2023/06/07 00:38:42;;;;;;;;;;;20.70;94.40;20.70;99341.00;;;;341958;28;83463;-88
2023/06/07 00:38:55;;;;;;;;;;;20.70;94.40;20.60;99348.00;;;;343853;28;97794;-88
2023/06/07 00:39:06;;;;;;;;;;;20.70;94.50;20.50;99347.00;;;;340768;28;83463;-87
2023/06/07 00:39:18;;;;;;;;;;;20.70;94.60;20.50;99343.00;;;;339828;28;93794;-88
2023/06/07 00:39:30;;;;;;;;;;;20.70;94.80;20.60;99337.00;;;;343221;28;83399;-88
2023/06/07 00:39:42;;;;;;;;;;;20.70;94.80;20.50;99342.00;;;;339620;28;96777;-88
2023/06/07 00:39:54;;;;;;;;;;;20.70;94.90;20.60;99340.00;;;;343303;28;83470;-88
2023/06/07 00:40:06;;;;;;;;;;;20.70;94.80;20.70;99348.00;;;;341205;28;97418;-88
2023/06/07 00:40:18;;;;;;;;;;;20.70;94.50;20.80;99343.00;;;;340735;28;83401;-88
2023/06/07 00:40:30;;;;;;;;;;;20.70;94.50;20.80;99347.00;;;;341234;28;97377;-88
2023/06/07 00:40:41;;;;;;;;;;;20.70;94.30;20.70;99346.00;;;;340588;28;83945;-88
2023/06/07 00:40:53;;;;;;;;;;;20.70;94.30;20.70;99349.00;;;;339795;28;97436;-88
2023/06/07 00:41:05;;;;;;;;;;;20.70;94.40;20.70;99346.00;;;;342012;28;83300;-87
2023/06/07 00:41:17;;;;;;;;;;;20.70;94.30;20.70;99346.00;;;;342544;28;97124;-87
2023/06/07 00:41:29;;;;;;;;;;;20.70;94.50;20.70;99344.00;;;;342073;28;83427;-88
2023/06/07 00:41:40;;;;;;;;;;;20.70;94.60;20.70;99351.00;;;;341166;28;96768;-87
2023/06/07 00:41:52;;;;;;;;;;;20.70;94.60;20.70;99345.00;;;;339397;28;82493;-88
2023/06/07 00:42:05;;;;;;;;;;;20.70;94.80;20.60;99339.00;;;;341262;28;95968;-88
2023/06/07 00:42:17;;;;;;;;;;;20.60;94.60;20.60;99349.00;;;;343342;28;83284;-88
2023/06/07 00:42:29;;;;;;;;;;;20.60;94.60;20.60;99342.00;;;;338641;28;93741;-87
2023/06/07 00:42:41;;;;;;;;;;;20.60;94.70;20.70;99349.00;;;;341887;28;83533;-87
2023/06/07 00:42:53;;;;;;;;;;;20.70;94.70;20.70;99344.00;;;;343933;28;97605;-87
2023/06/07 00:43:05;;;;;;;;;;;20.60;94.40;20.70;99347.00;;;;340712;28;83470;-88
2023/06/07 00:43:17;;;;;;;;;;;20.70;94.50;20.60;99342.00;;;;342445;28;97148;-88
2023/06/07 00:43:29;;;;;;;;;;;20.70;94.70;20.60;99341.00;;;;342053;28;82515;-88
2023/06/07 00:43:40;;;;;;;;;;;20.60;94.70;20.80;99348.00;;;;338588;28;94412;-88
2023/06/07 00:43:52;;;;;;;;;;;20.70;94.50;20.90;99346.00;;;;341982;28;83398;-87
2023/06/07 00:44:04;;;;;;;;;;;20.70;94.40;20.90;99346.00;;;;343915;28;95597;-87
2023/06/07 00:44:16;;;;;;;;;;;20.70;94.60;20.90;99350.00;;;;340706;28;83398;-88
2023/06/07 00:44:28;;;;;;;;;;;20.70;94.60;20.80;99352.00;;;;339872;28;97085;-87
2023/06/07 00:44:40;;;;;;;;;;;20.70;94.60;20.90;99341.00;;;;343285;28;82473;-87
2023/06/07 00:44:51;;;;;;;;;;;20.70;94.50;20.80;99348.00;;;;343963;28;97072;-87
2023/06/07 00:45:04;;;;;;;;;;;20.70;94.90;20.80;99343.00;;;;341968;28;82454;-87
2023/06/07 00:45:16;;;;;;;;;;;20.70;94.90;20.90;99349.00;;;;341065;28;96993;-88
2023/06/07 00:45:27;;;;;;;;;;;20.70;94.70;20.90;99346.00;;;;340756;28;83494;-88
2023/06/07 00:45:39;;;;;;;;;;;20.70;94.90;20.90;99343.00;;;;342602;28;95896;-87
2023/06/07 00:45:51;;;;;;;;;;;20.70;94.80;20.90;99347.00;;;;343443;28;83294;-87
2023/06/07 00:46:04;;;;;;;;;;;20.70;94.90;21.00;99342.00;;;;342554;28;97372;-88
2023/06/07 00:46:18;;;;;;;;;;;20.70;94.70;20.80;99350.00;;;;342113;28;83305;-88
2023/06/07 00:46:30;;;;;;;;;;;20.70;94.70;20.80;99344.00;;;;341340;28;93891;-87
2023/06/07 00:46:41;;;;;;;;;;;20.70;94.80;20.80;99343.00;;;;340529;28;83464;-87
2023/06/07 00:46:53;;;;;;;;;;;20.70;95.20;20.80;99341.00;;;;340006;28;94997;-88
2023/06/07 00:47:05;;;;;;;;;;;20.70;94.80;20.80;99343.00;;;;343429;28;82464;-88
2023/06/07 00:47:17;;;;;;;;;;;20.70;94.60;20.80;99345.00;;;;344008;28;95267;-87
2023/06/07 00:47:29;;;;;;;;;;;20.70;94.70;20.90;99349.00;;;;344799;28;82557;-88
2023/06/07 00:47:41;;;;;;;;;;;20.70;94.60;21.00;99347.00;;;;342502;28;97417;-88
2023/06/07 00:47:53;;;;;;;;;;;20.70;94.60;21.00;99347.00;;;;340695;28;83344;-88
2023/06/07 00:48:04;;;;;;;;;;;20.70;94.80;21.00;99348.00;;;;341248;28;96456;-87
2023/06/07 00:48:16;;;;;;;;;;;20.80;94.70;21.10;99341.00;;;;340709;28;83251;-88
2023/06/07 00:48:28;;;;;;;;;;;20.70;94.70;21.10;99338.00;;;;339774;28;96756;-87
2023/06/07 00:48:40;;;;;;;;;;;20.80;94.80;21.00;99347.00;;;;343274;28;83519;-87
2023/06/07 00:48:52;;;;;;;;;;;20.80;94.60;21.00;99344.00;;;;342533;28;97498;-87
2023/06/07 00:49:04;;;;;;;;;;;20.70;94.60;20.90;99348.00;;;;343359;28;82501;-88
2023/06/07 00:49:16;;;;;;;;;;;20.80;94.80;20.70;99350.00;;;;342603;28;94163;-88
2023/06/07 00:49:28;;;;;;;;;;;20.80;95.00;20.70;99346.00;;;;344737;28;83434;-87
2023/06/07 00:49:40;;;;;;;;;;;20.70;95.20;20.70;99336.00;;;;338505;28;97115;-87
2023/06/07 00:49:52;;;;;;;;;;;20.70;95.20;20.60;99343.00;;;;344691;28;83470;-87
2023/06/07 00:50:05;;;;;;;;;;;20.70;95.20;20.60;99345.00;;;;342552;28;96863;-88
2023/06/07 00:50:17;;;;;;;;;;;20.70;95.30;20.70;99344.00;;;;339320;28;82511;-88
2023/06/07 00:50:29;;;;;;;;;;;20.70;95.40;20.70;99347.00;;;;341116;28;96776;-88
2023/06/07 00:50:40;;;;;;;;;;;20.70;95.30;20.70;99346.00;;;;343456;28;83349;-88
2023/06/07 00:50:52;;;;;;;;;;;20.70;95.50;20.60;99344.00;;;;338583;28;95447;-87
2023/06/07 00:51:04;;;;;;;;;;;20.70;95.40;20.50;99345.00;;;;343411;28;83272;-87
2023/06/07 00:51:16;;;;;;;;;;;20.60;95.50;20.50;99347.00;;;;343870;28;97678;-88
2023/06/07 00:51:29;;;;;;;;;;;20.60;95.60;20.50;99347.00;;;;343456;28;82468;-88
2023/06/07 00:51:41;;;;;;;;;;;20.60;95.60;20.60;99347.00;;;;341188;28;96424;-88
2023/06/07 00:51:53;;;;;;;;;;;20.60;95.60;20.50;99346.00;;;;342075;28;82531;-88
2023/06/07 00:52:05;;;;;;;;;;;20.60;95.70;20.40;99354.00;;;;339903;28;95866;-87
2023/06/07 00:52:17;;;;;;;;;;;20.60;95.70;20.40;99343.00;;;;341998;28;83402;-87
2023/06/07 00:52:29;;;;;;;;;;;20.60;95.70;20.40;99351.00;;;;342528;28;96506;-88
2023/06/07 00:52:41;;;;;;;;;;;20.60;95.80;20.40;99349.00;;;;343378;28;82538;-88
2023/06/07 00:52:52;;;;;;;;;;;20.50;95.90;20.40;99351.00;;;;338532;28;93942;-87
2023/06/07 00:53:04;;;;;;;;;;;20.50;95.90;20.50;99343.00;;;;340671;28;83416;-88
2023/06/07 00:53:16;;;;;;;;;;;20.50;95.80;20.60;99344.00;;;;339835;28;95343;-88
2023/06/07 00:53:28;;;;;;;;;;;20.50;95.70;20.60;99345.00;;;;343365;28;83395;-87
2023/06/07 00:53:40;;;;;;;;;;;20.50;95.60;20.60;99349.00;;;;339946;28;96593;-87
2023/06/07 00:53:52;;;;;;;;;;;20.50;95.60;20.60;99343.00;;;;341967;28;83529;-87
2023/06/07 00:54:05;;;;;;;;;;;20.50;95.40;20.50;99347.00;;;;342559;28;96499;-88
2023/06/07 00:54:17;;;;;;;;;;;20.50;95.50;20.50;99351.00;;;;340665;28;83265;-88
2023/06/07 00:54:29;;;;;;;;;;;20.50;95.70;20.60;99351.00;;;;340995;28;95248;-87
2023/06/07 00:54:41;;;;;;;;;;;20.50;95.90;20.50;99352.00;;;;342090;28;83508;-88
2023/06/07 00:54:53;;;;;;;;;;;20.50;95.90;20.50;99350.00;;;;339800;28;97250;-87
2023/06/07 00:55:05;;;;;;;;;;;20.50;96.00;20.50;99350.00;;;;342115;28;83290;-87
2023/06/07 00:55:17;;;;;;;;;;;20.50;95.90;20.60;99349.00;;;;342591;28;96241;-87
2023/06/07 00:55:30;;;;;;;;;;;20.50;95.70;20.70;99345.00;;;;343437;28;83637;-88
2023/06/07 00:55:42;;;;;;;;;;;20.50;95.80;20.60;99347.00;;;;341303;28;94258;-87
2023/06/07 00:55:54;;;;;;;;;;;20.50;96.00;20.50;99340.00;;;;343083;28;83553;-88
2023/06/07 00:56:06;;;;;;;;;;;20.50;96.30;20.50;99345.00;;;;341244;28;96634;-88
2023/06/07 00:56:17;;;;;;;;;;;20.50;96.20;20.60;99343.00;;;;342064;28;82542;-88
2023/06/07 00:56:29;;;;;;;;;;;20.50;96.00;20.60;99357.00;;;;341102;28;96694;-87
2023/06/07 00:56:43;;;;;;;;;;;20.50;96.00;20.60;99346.00;;;;340619;28;83430;-88
2023/06/07 00:56:55;;;;;;;;;;;20.50;96.00;20.50;99343.00;;;;341141;28;97370;-88
2023/06/07 00:57:07;;;;;;;;;;;20.50;96.10;20.50;99349.00;;;;344813;28;82411;-87
2023/06/07 00:57:18;;;;;;;;;;;20.50;96.10;20.60;99349.00;;;;343951;28;95510;-88
2023/06/07 00:57:33;;;;;;;;;;;20.50;95.90;20.70;99358.00;;;;340710;28;83331;-87
2023/06/07 00:57:45;;;;;;;;;;;20.50;95.80;20.70;99350.00;;;;339898;28;95625;-87
2023/06/07 00:57:57;;;;;;;;;;;20.50;95.80;20.60;99346.00;;;;341877;28;82586;-88
2023/06/07 00:58:09;;;;;;;;;;;20.50;95.90;20.60;99346.00;;;;339918;28;96422;-87
2023/06/07 00:58:21;;;;;;;;;;;20.50;96.00;20.60;99356.00;;;;343353;28;83399;-88
2023/06/07 00:58:37;;;;;;;;;;;20.50;95.90;20.60;99355.00;;;;341065;28;95997;-87
2023/06/07 00:58:49;;;;;;;;;;;20.50;95.70;20.60;99352.00;;;;343378;28;83273;-87
2023/06/07 00:59:02;;;;;;;;;;;20.50;96.00;20.50;99350.00;;;;342493;28;98207;-88
2023/06/07 00:59:14;;;;;;;;;;;20.50;96.10;20.50;99351.00;;;;341945;28;83449;-88
2023/06/07 00:59:26;;;;;;;;;;;20.50;96.30;20.50;99346.00;;;;339896;28;96575;-88
2023/06/07 00:59:38;;;;;;;;;;;20.50;96.30;20.50;99345.00;;;;342106;28;83358;-88
2023/06/07 00:59:49;;;;;;;;;;;20.50;96.40;20.50;99341.00;;;;341069;28;96918;-88
2023/06/07 01:00:01;;;;;;;;;;;20.50;96.30;20.60;99346.00;;;;339360;28;82505;-88
2023/06/07 01:00:15;;;;;;;;;;;20.50;96.10;20.60;99348.00;;;;339956;28;96454;-87
2023/06/07 01:00:28;;;;;;;;;;;20.50;95.90;20.60;99342.00;;;;343444;28;82528;-88